Wetterstation Vordersexau
Wetterdaten: Woche 02.07.18 - 08.07.18 (KW27)
Datum Zeit Temp. A. Feuchte A. Luftdruck Regen Wind Richtung Taupunkt Windchill Windben
02.07.2018 00:00 20,2 C 55 % 1009,2 hPa 0,0 l/m 0,0 km/h O-NO 10,9 C 20,2 C 0,0 km/h
02.07.2018 01:00 18,8 C 60 % 1008,9 hPa 0,0 l/m 0,0 km/h O 10,9 C 18,8 C 0,0 km/h
02.07.2018 02:00 17,9 C 63 % 1008,8 hPa 0,0 l/m 0,0 km/h O-NO 10,8 C 17,9 C 0,0 km/h
02.07.2018 03:00 18,2 C 59 % 1009,2 hPa 0,0 l/m 0,0 km/h SO 10,1 C 18,2 C 0,0 km/h
02.07.2018 04:00 18,1 C 58 % 1009,5 hPa 0,0 l/m 0,0 km/h O 9,7 C 18,1 C 0,0 km/h
02.07.2018 05:00 17,5 C 59 % 1009,3 hPa 0,0 l/m 0,0 km/h S-SO 9,4 C 17,5 C 0,0 km/h
02.07.2018 06:00 17,3 C 65 % 1009,6 hPa 0,0 l/m 0,0 km/h N-NW 10,7 C 17,3 C 0,0 km/h
02.07.2018 07:00 17,9 C 66 % 1009,8 hPa 0,0 l/m 0,0 km/h NW 11,5 C 17,9 C 0,0 km/h
02.07.2018 08:00 19,5 C 61 % 1010,1 hPa 0,0 l/m 0,0 km/h NW 11,8 C 19,5 C 0,0 km/h
02.07.2018 09:00 21,9 C 55 % 1010,2 hPa 0,0 l/m 10,4 km/h NW 12,4 C 20,6 C 5,8 km/h
02.07.2018 10:00 23,4 C 51 % 1010,0 hPa 0,0 l/m 13,0 km/h N-NO 12,7 C 21,7 C 7,2 km/h
02.07.2018 11:00 25,4 C 49 % 1010,1 hPa 0,0 l/m 8,4 km/h N-NW 13,9 C 24,9 C 4,7 km/h
02.07.2018 12:00 27,1 C 45 % 1010,0 hPa 0,0 l/m 0,0 km/h N-NW 14,1 C 27,1 C 0,0 km/h
02.07.2018 13:00 28,4 C 43 % 1009,4 hPa 0,0 l/m 2,6 km/h NW 14,6 C 28,4 C 1,4 km/h
02.07.2018 14:00 29,8 C 41 % 1009,4 hPa 0,0 l/m 0,0 km/h W 15,1 C 29,8 C 0,0 km/h
02.07.2018 15:00 30,6 C 38 % 1009,3 hPa 0,0 l/m 0,0 km/h W 14,6 C 30,6 C 0,0 km/h
02.07.2018 16:00 31,3 C 37 % 1009,0 hPa 0,0 l/m 3,9 km/h W-NW 14,8 C 31,3 C 2,2 km/h
02.07.2018 17:00 31,1 C 36 % 1009,1 hPa 0,0 l/m 0,0 km/h N-NW 14,2 C 31,1 C 0,0 km/h
02.07.2018 18:00 30,6 C 37 % 1009,2 hPa 0,0 l/m 0,0 km/h N-NW 14,2 C 30,6 C 0,0 km/h
02.07.2018 19:00 29,1 C 38 % 1009,2 hPa 0,0 l/m 6,5 km/h N-NW 13,3 C 29,1 C 3,6 km/h
02.07.2018 20:00 27,6 C 41 % 1009,4 hPa 0,0 l/m 0,0 km/h N-NW 13,1 C 27,6 C 0,0 km/h
02.07.2018 21:00 25,3 C 45 % 1010,2 hPa 0,0 l/m 0,0 km/h N-NW 12,5 C 25,3 C 0,0 km/h
02.07.2018 22:00 22,3 C 56 % 1010,9 hPa 0,0 l/m 0,0 km/h N-NW 13,1 C 22,3 C 0,0 km/h
02.07.2018 23:00 21,1 C 62 % 1010,9 hPa 0,0 l/m 0,0 km/h N-NW 13,5 C 21,1 C 0,0 km/h
03.07.2018 00:00 20,1 C 65 % 1011,1 hPa 0,0 l/m 0,0 km/h N-NW 13,3 C 20,1 C 0,0 km/h
03.07.2018 01:00 18,9 C 70 % 1011,0 hPa 0,0 l/m 0,0 km/h N 13,3 C 18,9 C 0,0 km/h
03.07.2018 02:00 18,3 C 71 % 1010,8 hPa 0,0 l/m 0,0 km/h N 12,9 C 18,3 C 0,0 km/h
03.07.2018 03:00 17,6 C 74 % 1011,3 hPa 0,0 l/m 0,0 km/h N 12,9 C 17,6 C 0,0 km/h
03.07.2018 04:00 17,1 C 75 % 1011,8 hPa 0,0 l/m 0,0 km/h N-NO 12,6 C 17,1 C 0,0 km/h
03.07.2018 05:00 16,4 C 77 % 1011,8 hPa 0,0 l/m 0,0 km/h N-NO 12,4 C 16,4 C 0,0 km/h
03.07.2018 06:00 17,4 C 77 % 1012,0 hPa 0,0 l/m 0,0 km/h N 13,3 C 17,4 C 0,0 km/h
03.07.2018 07:00 19,1 C 72 % 1012,4 hPa 0,0 l/m 0,0 km/h W 13,9 C 19,1 C 0,0 km/h
03.07.2018 08:00 20,5 C 65 % 1012,9 hPa 0,0 l/m 0,0 km/h W-SW 13,7 C 20,5 C 0,0 km/h
03.07.2018 09:00 21,2 C 57 % 1013,9 hPa 0,0 l/m 0,0 km/h O-NO 12,3 C 21,2 C 0,0 km/h
03.07.2018 10:00 19,4 C 71 % 1014,8 hPa 0,5 l/m 0,0 km/h O-SO 14,0 C 19,4 C 0,0 km/h
03.07.2018 11:00 19,9 C 78 % 1014,6 hPa 0,0 l/m 0,0 km/h SO 15,9 C 19,9 C 0,0 km/h
03.07.2018 12:00 21,8 C 73 % 1014,2 hPa 0,0 l/m 0,0 km/h S-SW 16,7 C 21,8 C 0,0 km/h
03.07.2018 13:00 23,3 C 69 % 1014,1 hPa 0,0 l/m 0,0 km/h S-SO 17,3 C 23,3 C 0,0 km/h
03.07.2018 14:00 25,0 C 61 % 1013,6 hPa 0,0 l/m 0,0 km/h SO 16,9 C 25,0 C 0,0 km/h
03.07.2018 15:00 25,1 C 59 % 1013,6 hPa 0,0 l/m 0,0 km/h SW 16,5 C 25,1 C 0,0 km/h
03.07.2018 16:00 24,9 C 58 % 1013,2 hPa 0,0 l/m 0,0 km/h O 16,1 C 24,9 C 0,0 km/h
03.07.2018 17:00 27,3 C 50 % 1012,7 hPa 0,0 l/m 0,0 km/h SW 15,9 C 27,3 C 0,0 km/h
03.07.2018 18:00 28,3 C 50 % 1012,5 hPa 0,0 l/m 0,0 km/h W-NW 16,9 C 28,3 C 0,0 km/h
03.07.2018 19:00 27,2 C 52 % 1012,3 hPa 0,0 l/m 0,0 km/h NW 16,5 C 27,2 C 0,0 km/h
03.07.2018 20:00 25,3 C 59 % 1012,7 hPa 0,0 l/m 0,0 km/h N-NO 16,7 C 25,3 C 0,0 km/h
03.07.2018 21:00 22,3 C 67 % 1012,4 hPa 0,0 l/m 0,0 km/h O-NO 15,9 C 22,3 C 0,0 km/h
03.07.2018 22:00 21,1 C 69 % 1013,1 hPa 0,0 l/m 0,0 km/h O 15,2 C 21,1 C 0,0 km/h
03.07.2018 23:00 19,6 C 75 % 1013,1 hPa 0,0 l/m 0,0 km/h SO 15,0 C 19,6 C 0,0 km/h
04.07.2018 00:00 18,9 C 76 % 1013,3 hPa 0,0 l/m 0,0 km/h O 14,6 C 18,9 C 0,0 km/h
04.07.2018 01:00 18,6 C 78 % 1013,3 hPa 0,0 l/m 0,0 km/h O 14,7 C 18,6 C 0,0 km/h
04.07.2018 02:00 17,9 C 79 % 1013,2 hPa 0,0 l/m 0,0 km/h O-NO 14,2 C 17,9 C 0,0 km/h
04.07.2018 03:00 17,9 C 79 % 1013,1 hPa 0,0 l/m 0,0 km/h O-NO 14,2 C 17,9 C 0,0 km/h
04.07.2018 04:00 17,6 C 80 % 1012,9 hPa 0,0 l/m 0,0 km/h O-SO 14,1 C 17,6 C 0,0 km/h
04.07.2018 05:00 17,6 C 80 % 1013,0 hPa 0,0 l/m 0,0 km/h O-SO 14,1 C 17,6 C 0,0 km/h
04.07.2018 06:00 18,0 C 81 % 1013,4 hPa 0,0 l/m 0,0 km/h O-SO 14,7 C 18,0 C 0,0 km/h
04.07.2018 07:00 19,1 C 80 % 1013,5 hPa 0,0 l/m 0,0 km/h SO 15,6 C 19,1 C 0,0 km/h
04.07.2018 08:00 22,1 C 74 % 1013,6 hPa 0,0 l/m 0,0 km/h SO 17,2 C 22,1 C 0,0 km/h
04.07.2018 09:00 22,2 C 76 % 1013,5 hPa 0,0 l/m 0,0 km/h SO 17,8 C 22,2 C 0,0 km/h
04.07.2018 10:00 23,3 C 73 % 1013,7 hPa 0,0 l/m 0,0 km/h S-SO 18,2 C 23,3 C 0,0 km/h
04.07.2018 11:00 26,0 C 65 % 1013,6 hPa 0,0 l/m 0,0 km/h S-SO 18,9 C 26,0 C 0,0 km/h
04.07.2018 12:00 28,3 C 56 % 1013,1 hPa 0,0 l/m 0,0 km/h N-NW 18,7 C 28,3 C 0,0 km/h
04.07.2018 13:00 24,3 C 60 % 1012,7 hPa 0,5 l/m 6,5 km/h NO 16,0 C 24,3 C 3,6 km/h
04.07.2018 14:00 22,4 C 79 % 1012,7 hPa 1,0 l/m 0,0 km/h NO 18,6 C 22,4 C 0,0 km/h
04.07.2018 15:00 26,8 C 60 % 1011,8 hPa 0,0 l/m 0,0 km/h O-SO 18,4 C 26,8 C 0,0 km/h
04.07.2018 16:00 29,4 C 50 % 1011,5 hPa 0,0 l/m 0,0 km/h W-NW 17,9 C 29,4 C 0,0 km/h
04.07.2018 17:00 30,9 C 43 % 1010,8 hPa 0,0 l/m 0,0 km/h N-NW 16,8 C 30,9 C 0,0 km/h
04.07.2018 18:00 30,6 C 43 % 1010,6 hPa 0,0 l/m 0,0 km/h N-NO 16,6 C 30,6 C 0,0 km/h
04.07.2018 19:00 28,8 C 46 % 1010,4 hPa 0,0 l/m 0,0 km/h NO 16,0 C 28,8 C 0,0 km/h
04.07.2018 20:00 26,5 C 54 % 1010,8 hPa 0,0 l/m 0,0 km/h NO 16,4 C 26,5 C 0,0 km/h
04.07.2018 21:00 24,1 C 59 % 1011,2 hPa 0,0 l/m 0,0 km/h O-NO 15,6 C 24,1 C 0,0 km/h
04.07.2018 22:00 21,8 C 67 % 1011,2 hPa 0,0 l/m 0,0 km/h O-SO 15,4 C 21,8 C 0,0 km/h
04.07.2018 23:00 19,9 C 72 % 1011,0 hPa 0,0 l/m 0,0 km/h SO 14,7 C 19,9 C 0,0 km/h
05.07.2018 00:00 19,2 C 74 % 1010,9 hPa 0,0 l/m 0,0 km/h SO 14,4 C 19,2 C 0,0 km/h
05.07.2018 01:00 18,3 C 76 % 1011,2 hPa 0,0 l/m 0,0 km/h O-NO 14,0 C 18,3 C 0,0 km/h
05.07.2018 02:00 17,6 C 80 % 1011,3 hPa 0,0 l/m 0,0 km/h SO 14,1 C 17,6 C 0,0 km/h
05.07.2018 03:00 17,9 C 81 % 1011,9 hPa 0,0 l/m 0,0 km/h O-NO 14,6 C 17,9 C 0,0 km/h
05.07.2018 04:00 18,2 C 81 % 1011,4 hPa 0,0 l/m 0,0 km/h O-NO 14,9 C 18,2 C 0,0 km/h
05.07.2018 05:00 18,1 C 82 % 1011,6 hPa 0,0 l/m 0,0 km/h SO 15,0 C 18,1 C 0,0 km/h
05.07.2018 06:00 19,2 C 76 % 1011,6 hPa 0,0 l/m 1,3 km/h W-NW 14,9 C 19,2 C 0,7 km/h
05.07.2018 07:00 19,4 C 78 % 1011,6 hPa 0,0 l/m 0,0 km/h W-SW 15,5 C 19,4 C 0,0 km/h
05.07.2018 08:00 19,1 C 80 % 1012,1 hPa 0,0 l/m 0,0 km/h SO 15,6 C 19,1 C 0,0 km/h
05.07.2018 09:00 20,3 C 78 % 1012,1 hPa 0,0 l/m 0,0 km/h W-SW 16,3 C 20,3 C 0,0 km/h
05.07.2018 10:00 20,8 C 74 % 1012,9 hPa 0,0 l/m 1,9 km/h S-SW 16,0 C 20,8 C 1,1 km/h
05.07.2018 11:00 20,4 C 74 % 1013,1 hPa 0,0 l/m 0,0 km/h W-SW 15,6 C 20,4 C 0,0 km/h
05.07.2018 12:00 18,8 C 82 % 1013,4 hPa 0,0 l/m 12,3 km/h W-SW 15,7 C 16,6 C 6,8 km/h
05.07.2018 13:00 18,8 C 82 % 1013,3 hPa 1,0 l/m 6,5 km/h W-SW 15,7 C 18,8 C 3,6 km/h
05.07.2018 14:00 18,8 C 82 % 1013,1 hPa 0,5 l/m 0,0 km/h W-SW 15,7 C 18,8 C 0,0 km/h
05.07.2018 15:00 19,0 C 82 % 1013,2 hPa 0,0 l/m 0,0 km/h S-SO 15,9 C 19,0 C 0,0 km/h
05.07.2018 16:00 20,3 C 80 % 1012,8 hPa 0,0 l/m 0,0 km/h SO 16,7 C 20,3 C 0,0 km/h
05.07.2018 17:00 22,4 C 73 % 1012,5 hPa 0,0 l/m 0,0 km/h W-SW 17,3 C 22,4 C 0,0 km/h
05.07.2018 18:00 22,6 C 69 % 1012,3 hPa 0,0 l/m 0,0 km/h W 16,6 C 22,6 C 0,0 km/h
05.07.2018 19:00 21,7 C 72 % 1012,4 hPa 0,0 l/m 0,0 km/h NW 16,4 C 21,7 C 0,0 km/h
05.07.2018 20:00 20,3 C 78 % 1012,7 hPa 0,0 l/m 0,0 km/h NW 16,3 C 20,3 C 0,0 km/h
05.07.2018 21:00 19,2 C 81 % 1013,1 hPa 0,5 l/m 0,0 km/h N-NO 15,9 C 19,2 C 0,0 km/h
05.07.2018 22:00 18,5 C 83 % 1013,3 hPa 0,0 l/m 0,0 km/h N-NO 15,6 C 18,5 C 0,0 km/h
05.07.2018 23:00 18,4 C 83 % 1013,9 hPa 0,0 l/m 0,0 km/h SW 15,5 C 18,4 C 0,0 km/h
06.07.2018 00:00 18,2 C 83 % 1014,2 hPa 0,0 l/m 1,3 km/h S 15,3 C 18,2 C 0,7 km/h
06.07.2018 01:00 18,1 C 82 % 1014,0 hPa 0,5 l/m 0,0 km/h NW 15,0 C 18,1 C 0,0 km/h
06.07.2018 02:00 16,9 C 83 % 1013,9 hPa 3,6 l/m 0,0 km/h N 14,0 C 16,9 C 0,0 km/h
06.07.2018 03:00 16,6 C 82 % 1014,1 hPa 1,0 l/m 0,0 km/h W-SW 13,5 C 16,6 C 0,0 km/h
06.07.2018 04:00 16,5 C 79 % 1014,1 hPa 2,1 l/m 0,0 km/h W 12,8 C 16,5 C 0,0 km/h
06.07.2018 05:00 16,4 C 78 % 1014,4 hPa 0,5 l/m 0,0 km/h W 12,6 C 16,4 C 0,0 km/h
06.07.2018 06:00 16,5 C 73 % 1014,9 hPa 3,1 l/m 0,0 km/h W 11,6 C 16,5 C 0,0 km/h
06.07.2018 07:00 16,9 C 70 % 1015,4 hPa 2,6 l/m 0,0 km/h W 11,4 C 16,9 C 0,0 km/h
06.07.2018 08:00 17,3 C 66 % 1015,8 hPa 0,0 l/m 0,0 km/h W-SW 10,9 C 17,3 C 0,0 km/h
06.07.2018 09:00 17,5 C 66 % 1016,2 hPa 0,0 l/m 0,0 km/h W-SW 11,1 C 17,5 C 0,0 km/h
06.07.2018 10:00 18,4 C 69 % 1016,6 hPa 0,0 l/m 0,0 km/h NW 12,6 C 18,4 C 0,0 km/h
06.07.2018 11:00 18,4 C 80 % 1017,0 hPa 0,0 l/m 0,0 km/h N-NW 14,9 C 18,4 C 0,0 km/h
06.07.2018 12:00 19,3 C 82 % 1017,1 hPa 0,0 l/m 0,0 km/h W 16,1 C 19,3 C 0,0 km/h
06.07.2018 13:00 20,4 C 82 % 1017,1 hPa 0,0 l/m 0,0 km/h SW 17,2 C 20,4 C 0,0 km/h
06.07.2018 14:00 22,1 C 77 % 1017,0 hPa 0,0 l/m 1,9 km/h N-NO 17,9 C 22,1 C 1,1 km/h
06.07.2018 15:00 23,9 C 67 % 1016,8 hPa 0,0 l/m 0,0 km/h W-SW 17,4 C 23,9 C 0,0 km/h
06.07.2018 16:00 24,9 C 62 % 1016,6 hPa 0,0 l/m 0,0 km/h O-NO 17,1 C 24,9 C 0,0 km/h
06.07.2018 17:00 21,8 C 64 % 1016,8 hPa 0,0 l/m 0,0 km/h O-NO 14,7 C 21,8 C 0,0 km/h
06.07.2018 18:00 23,1 C 65 % 1017,0 hPa 0,0 l/m 0,0 km/h SO 16,2 C 23,1 C 0,0 km/h
06.07.2018 19:00 21,9 C 71 % 1017,1 hPa 0,0 l/m 0,0 km/h SO 16,4 C 21,9 C 0,0 km/h
06.07.2018 20:00 20,4 C 74 % 1017,4 hPa 0,0 l/m 0,0 km/h N-NW 15,6 C 20,4 C 0,0 km/h
06.07.2018 21:00 19,8 C 74 % 1018,7 hPa 0,0 l/m 0,0 km/h SO 15,0 C 19,8 C 0,0 km/h
06.07.2018 22:00 18,4 C 79 % 1019,0 hPa 0,5 l/m 0,0 km/h O-SO 14,7 C 18,4 C 0,0 km/h
06.07.2018 23:00 17,9 C 83 % 1019,3 hPa 0,0 l/m 0,0 km/h O-NO 15,0 C 17,9 C 0,0 km/h
07.07.2018 00:00 17,3 C 83 % 1019,5 hPa 0,0 l/m 0,0 km/h O-NO 14,4 C 17,3 C 0,0 km/h
07.07.2018 01:00 16,3 C 82 % 1019,4 hPa 0,0 l/m 0,0 km/h O 13,2 C 16,3 C 0,0 km/h
07.07.2018 02:00 15,9 C 82 % 1019,5 hPa 0,0 l/m 0,0 km/h SO 12,8 C 15,9 C 0,0 km/h
07.07.2018 03:00 15,4 C 81 % 1019,4 hPa 0,0 l/m 0,0 km/h O-SO 12,2 C 15,4 C 0,0 km/h
07.07.2018 04:00 14,8 C 81 % 1019,4 hPa 0,0 l/m 0,0 km/h O-SO 11,6 C 14,8 C 0,0 km/h
07.07.2018 05:00 14,5 C 81 % 1019,8 hPa 0,0 l/m 0,0 km/h O 11,3 C 14,5 C 0,0 km/h
07.07.2018 06:00 15,0 C 80 % 1019,9 hPa 0,0 l/m 0,0 km/h SO 11,6 C 15,0 C 0,0 km/h
07.07.2018 07:00 16,5 C 83 % 1019,9 hPa 0,0 l/m 8,4 km/h SO 13,6 C 15,5 C 4,7 km/h
07.07.2018 08:00 18,6 C 83 % 1020,0 hPa 0,0 l/m 0,0 km/h W-NW 15,7 C 18,6 C 0,0 km/h
07.07.2018 09:00 20,3 C 79 % 1020,0 hPa 0,0 l/m 0,0 km/h W 16,5 C 20,3 C 0,0 km/h
07.07.2018 10:00 21,7 C 72 % 1019,9 hPa 0,0 l/m 0,0 km/h W-SW 16,4 C 21,7 C 0,0 km/h
07.07.2018 11:00 24,3 C 66 % 1019,6 hPa 0,0 l/m 0,0 km/h NO 17,5 C 24,3 C 0,0 km/h
07.07.2018 12:00 25,2 C 57 % 1019,5 hPa 0,0 l/m 5,2 km/h N-NO 16,1 C 25,2 C 2,9 km/h
07.07.2018 13:00 26,3 C 52 % 1019,1 hPa 0,0 l/m 9,7 km/h N 15,6 C 25,7 C 5,4 km/h
07.07.2018 14:00 27,3 C 47 % 1018,7 hPa 0,0 l/m 3,2 km/h NW 15,0 C 27,3 C 1,8 km/h
07.07.2018 15:00 27,4 C 47 % 1018,3 hPa 0,0 l/m 0,0 km/h N-NW 15,1 C 27,4 C 0,0 km/h
07.07.2018 16:00 27,6 C 46 % 1018,0 hPa 0,0 l/m 1,9 km/h N-NW 14,9 C 27,6 C 1,1 km/h
07.07.2018 17:00 27,6 C 46 % 1017,8 hPa 0,0 l/m 14,9 km/h N-NW 14,9 C 26,5 C 8,3 km/h
07.07.2018 18:00 27,3 C 46 % 1017,6 hPa 0,0 l/m 0,0 km/h N-NW 14,6 C 27,3 C 0,0 km/h
07.07.2018 19:00 26,6 C 49 % 1017,6 hPa 0,0 l/m 1,9 km/h N 15,0 C 26,6 C 1,1 km/h
07.07.2018 20:00 25,3 C 52 % 1017,6 hPa 0,0 l/m 0,0 km/h O-NO 14,7 C 25,3 C 0,0 km/h
07.07.2018 21:00 21,8 C 64 % 1018,2 hPa 0,0 l/m 0,0 km/h O-NO 14,7 C 21,8 C 0,0 km/h
07.07.2018 22:00 20,1 C 70 % 1018,2 hPa 0,0 l/m 0,0 km/h SO 14,5 C 20,1 C 0,0 km/h
07.07.2018 23:00 19,2 C 75 % 1018,3 hPa 0,0 l/m 0,0 km/h SO 14,7 C 19,2 C 0,0 km/h
08.07.2018 00:00 18,3 C 76 % 1018,3 hPa 0,0 l/m 0,0 km/h O-NO 14,0 C 18,3 C 0,0 km/h
08.07.2018 01:00 17,4 C 80 % 1018,5 hPa 0,0 l/m 0,0 km/h O-NO 13,9 C 17,4 C 0,0 km/h
08.07.2018 02:00 16,6 C 81 % 1018,6 hPa 0,0 l/m 0,0 km/h O-NO 13,3 C 16,6 C 0,0 km/h
08.07.2018 03:00 16,0 C 82 % 1018,4 hPa 0,0 l/m 0,0 km/h O-NO 12,9 C 16,0 C 0,0 km/h
08.07.2018 04:00 15,4 C 83 % 1018,3 hPa 0,0 l/m 0,0 km/h O-NO 12,5 C 15,4 C 0,0 km/h
08.07.2018 05:00 14,8 C 83 % 1018,8 hPa 0,0 l/m 0,0 km/h O-NO 11,9 C 14,8 C 0,0 km/h
08.07.2018 06:00 15,2 C 83 % 1018,9 hPa 0,0 l/m 0,0 km/h O-NO 12,3 C 15,2 C 0,0 km/h
08.07.2018 07:00 17,2 C 83 % 1019,2 hPa 0,0 l/m 0,0 km/h NO 14,3 C 17,2 C 0,0 km/h
08.07.2018 08:00 18,9 C 80 % 1019,1 hPa 0,0 l/m 0,0 km/h W-SW 15,4 C 18,9 C 0,0 km/h
08.07.2018 09:00 20,5 C 71 % 1019,0 hPa 0,0 l/m 0,0 km/h W 15,1 C 20,5 C 0,0 km/h
08.07.2018 10:00 22,2 C 61 % 1019,0 hPa 0,0 l/m 0,0 km/h W 14,3 C 22,2 C 0,0 km/h
08.07.2018 11:00 23,5 C 54 % 1018,9 hPa 0,0 l/m 6,5 km/h W-NW 13,6 C 23,5 C 3,6 km/h
08.07.2018 12:00 24,9 C 50 % 1018,6 hPa 0,0 l/m 23,3 km/h N-NW 13,7 C 22,2 C 13,0 km/h
08.07.2018 13:00 25,9 C 47 % 1018,2 hPa 0,0 l/m 0,0 km/h N-NW 13,7 C 25,9 C 0,0 km/h
08.07.2018 14:00 26,8 C 44 % 1017,9 hPa 0,0 l/m 0,0 km/h N-NO 13,5 C 26,8 C 0,0 km/h
08.07.2018 15:00 27,4 C 42 % 1017,8 hPa 0,0 l/m 0,0 km/h NW 13,3 C 27,4 C 0,0 km/h
08.07.2018 16:00 27,5 C 41 % 1017,5 hPa 0,0 l/m 0,0 km/h N 13,1 C 27,5 C 0,0 km/h
08.07.2018 17:00 27,6 C 40 % 1017,4 hPa 0,0 l/m 0,0 km/h NW 12,8 C 27,6 C 0,0 km/h
08.07.2018 18:00 27,4 C 40 % 1017,2 hPa 0,0 l/m 0,0 km/h NW 12,6 C 27,4 C 0,0 km/h
08.07.2018 19:00 26,3 C 42 % 1017,1 hPa 0,0 l/m 3,2 km/h N 12,3 C 26,3 C 1,8 km/h
08.07.2018 20:00 25,1 C 44 % 1017,4 hPa 0,0 l/m 0,0 km/h O-SO 12,0 C 25,1 C 0,0 km/h
08.07.2018 21:00 21,3 C 58 % 1017,7 hPa 0,0 l/m 0,0 km/h O-SO 12,7 C 21,3 C 0,0 km/h
08.07.2018 22:00 19,9 C 61 % 1018,1 hPa 0,0 l/m 0,0 km/h O-SO 12,2 C 19,9 C 0,0 km/h
08.07.2018 23:00 18,7 C 65 % 1018,2 hPa 0,0 l/m 0,0 km/h SO 12,0 C 18,7 C 0,0 km/h
Min-Datum _ 07.07.18 02.07.18 02.07.18 - 02.07.18 - 02.07.18 07.07.18 02.07.18
_ Min-Zeit 05:53 17:53 02:53 - 00:53 - 05:53 05:53 00:53
Minimum _ 14,5 C 36 % 1008,8 hPa - 0,0 km/h - 9,4 C 14,5 C 0,0 km/h
Max-Datum _ 02.07.18 05.07.18 07.07.18 06.07.18 08.07.18 - 04.07.18 02.07.18 08.07.18
_ Max-Zeit 16:53 22:53 08:53 02:53 12:53 - 11:53 16:53 12:53
Maximum _ 31,3 C 83 % 1020,0 hPa 3,6 l/m 23,3 km/h
N-NW
- 18,9 C 31,3 C 13,0 km/h
N-NW
Durchschnitt _ 21,4 C 67 % 1014,4 hPa #18,1 l/m 0,9 km/h O-NO 14,5 C 21,3 C 0,5 km/h
www.sexauwetter.de